Map

Track Data

SID SEASON NUMBER BASIN SUBBASIN NAME ISO_TIME NATURE LAT LON WMO_WIND WMO_PRES WMO_AGENCY TRACK_TYPE DIST2LAND LANDFALL IFLAG USA_AGENCY USA_ATCF_ID USA_LAT USA_LON USA_RECORD USA_STATUS USA_WIND USA_PRES USA_SSHS USA_R34_NE USA_R34_SE USA_R34_SW USA_R34_NW USA_R50_NE USA_R50_SE USA_R50_SW USA_R50_NW USA_R64_NE USA_R64_SE USA_R64_SW USA_R64_NW USA_POCI USA_ROCI USA_RMW USA_EYE TOKYO_LAT TOKYO_LON TOKYO_GRADE TOKYO_WIND TOKYO_PRES TOKYO_R50_DIR TOKYO_R50_LONG TOKYO_R50_SHORT TOKYO_R30_DIR TOKYO_R30_LONG TOKYO_R30_SHORT TOKYO_LAND CMA_LAT CMA_LON CMA_CAT CMA_WIND CMA_PRES HKO_LAT HKO_LON HKO_CAT HKO_WIND HKO_PRES NEWDELHI_LAT NEWDELHI_LON NEWDELHI_GRADE NEWDELHI_WIND NEWDELHI_PRES NEWDELHI_CI NEWDELHI_DP NEWDELHI_POCI REUNION_LAT REUNION_LON REUNION_TYPE REUNION_WIND REUNION_PRES REUNION_TNUM REUNION_CI REUNION_RMW REUNION_R34_NE REUNION_R34_SE REUNION_R34_SW REUNION_R34_NW REUNION_R50_NE REUNION_R50_SE REUNION_R50_SW REUNION_R50_NW REUNION_R64_NE REUNION_R64_SE REUNION_R64_SW REUNION_R64_NW BOM_LAT BOM_LON BOM_TYPE BOM_WIND BOM_PRES BOM_TNUM BOM_CI BOM_RMW BOM_R34_NE BOM_R34_SE BOM_R34_SW BOM_R34_NW BOM_R50_NE BOM_R50_SE BOM_R50_SW BOM_R50_NW BOM_R64_NE BOM_R64_SE BOM_R64_SW BOM_R64_NW BOM_ROCI BOM_POCI BOM_EYE BOM_POS_METHOD BOM_PRES_METHOD NADI_LAT NADI_LON NADI_CAT NADI_WIND NADI_PRES WELLINGTON_LAT WELLINGTON_LON WELLINGTON_WIND WELLINGTON_PRES DS824_LAT DS824_LON DS824_STAGE DS824_WIND DS824_PRES TD9636_LAT TD9636_LON TD9636_STAGE TD9636_WIND TD9636_PRES TD9635_LAT TD9635_LON TD9635_WIND TD9635_PRES TD9635_ROCI NEUMANN_LAT NEUMANN_LON NEUMANN_CLASS NEUMANN_WIND NEUMANN_PRES MLC_LAT MLC_LON MLC_CLASS MLC_WIND MLC_PRES USA_GUST BOM_GUST BOM_GUST_PER REUNION_GUST REUNION_GUST_PER USA_SEAHGT USA_SEARAD_NE USA_SEARAD_SE USA_SEARAD_SW USA_SEARAD_NW STORM_SPEED STORM_DIR
1943193N12148 1943 39 WP MM NOT_NAMED 1943-07-11 12:00:00 NR 12.1000 148.200 main 1593 1591 __________O___ -1 12.1000 148.200 4 12 280
1943193N12148 1943 39 WP MM NOT_NAMED 1943-07-11 15:00:00 NR 12.2053 147.581 main 1602 1602 __________P___ -1 12.2053 147.581 4 12 281
1943193N12148 1943 39 WP MM NOT_NAMED 1943-07-11 18:00:00 NR 12.3281 146.950 main 1613 1613 __________P___ -1 12.3281 146.950 4 13 283
1943193N12148 1943 39 WP MM NOT_NAMED 1943-07-11 21:00:00 NR 12.4868 146.293 main 1636 1636 __________P___ -1 12.4868 146.293 4 14 286
1943193N12148 1943 39 WP MM NOT_NAMED 1943-07-12 00:00:00 NR 12.7000 145.600 main 1661 1661 __________O___ -1 12.7000 145.600 4 15 289
1943193N12148 1943 39 WP MM NOT_NAMED 1943-07-12 03:00:00 NR 12.9804 144.863 main 1702 1702 __________P___ -1 12.9804 144.863 4 16 293
1943193N12148 1943 39 WP MM NOT_NAMED 1943-07-12 06:00:00 NR 13.3177 144.100 main 1747 1747 __________P___ -1 13.3177 144.100 4 17 296
1943193N12148 1943 39 WP MM NOT_NAMED 1943-07-12 09:00:00 NR 13.6960 143.337 main 1804 1804 __________P___ -1 13.6960 143.337 4 17 298
1943193N12148 1943 39 WP MM NOT_NAMED 1943-07-12 12:00:00 NR 14.1000 142.600 main 1824 1790 __________O___ -1 14.1000 142.600 4 16 301
1943193N12148 1943 39 WP MM NOT_NAMED 1943-07-12 15:00:00 NR 14.5149 141.909 main 1790 1734 __________P___ -1 14.5149 141.909 4 16 303
1943193N12148 1943 39 WP MM NOT_NAMED 1943-07-12 18:00:00 NR 14.9491 141.247 main 1724 1669 __________P___ -1 14.9491 141.247 4 15 305
1943193N12148 1943 39 WP MM NOT_NAMED 1943-07-12 21:00:00 NR 15.3838 140.612 main 1669 1615 __________P___ -1 15.3838 140.612 4 15 305
1943193N12148 1943 39 WP MM NOT_NAMED 1943-07-13 00:00:00 NR 15.8000 140.000 main 1615 1561 __________O___ -1 15.8000 140.000 4 14 304
1943193N12148 1943 39 WP MM NOT_NAMED 1943-07-13 03:00:00 NR 16.1752 139.378 main 1564 1511 __________P___ -1 16.1752 139.378 4 14 302
1943193N12148 1943 39 WP MM NOT_NAMED 1943-07-13 06:00:00 NR 16.5296 138.782 main 1511 1464 __________P___ -1 16.5296 138.782 4 13 302
1943193N12148 1943 39 WP MM NOT_NAMED 1943-07-13 09:00:00 NR 16.8692 138.219 main 1464 1426 __________P___ -1 16.8692 138.219 4 12 303
1943193N12148 1943 39 WP MM NOT_NAMED 1943-07-13 12:00:00 NR 17.2000 137.700 main 1426 1390 __________O___ -1 17.2000 137.700 4 11 303
1943193N12148 1943 39 WP MM NOT_NAMED 1943-07-13 15:00:00 NR 17.4990 137.222 main 1390 1365 __________P___ -1 17.4990 137.222 4 11 304
1943193N12148 1943 39 WP MM NOT_NAMED 1943-07-13 18:00:00 NR 17.7967 136.788 main 1365 1343 __________P___ -1 17.7967 136.788 4 10 308
1943193N12148 1943 39 WP MM NOT_NAMED 1943-07-13 21:00:00 NR 18.1210 136.385 main 1343 1326 __________P___ -1 18.1210 136.385 4 10 313
1943193N12148 1943 39 WP MM NOT_NAMED 1943-07-14 00:00:00 NR 18.5000 136.000 main 1328 1316 __________O___ -1 18.5000 136.000 4 11 319
1943193N12148 1943 39 WP MM NOT_NAMED 1943-07-14 03:00:00 NR 18.9875 135.603 main 1322 1309 __________P___ -1 18.9875 135.603 4 13 324
1943193N12148 1943 39 WP MM NOT_NAMED 1943-07-14 06:00:00 NR 19.5272 135.220 main 1309 1298 __________P___ -1 19.5272 135.220 4 13 327
1943193N12148 1943 39 WP MM NOT_NAMED 1943-07-14 09:00:00 NR 20.0783 134.853 main 1288 1222 __________P___ -1 20.0783 134.853 4 13 328
1943193N12148 1943 39 WP MM NOT_NAMED 1943-07-14 12:00:00 NR 20.6000 134.500 main 1222 1170 __________O___ -1 20.6000 134.500 4 12 326
1943193N12148 1943 39 WP MM NOT_NAMED 1943-07-14 15:00:00 NR 21.0642 134.144 main 1156 1104 __________P___ -1 21.0642 134.144 4 11 324
1943193N12148 1943 39 WP MM NOT_NAMED 1943-07-14 18:00:00 NR 21.4898 133.805 main 1104 1053 __________P___ -1 21.4898 133.805 4 10 323
1943193N12148 1943 39 WP MM NOT_NAMED 1943-07-14 21:00:00 NR 21.8705 133.488 main 1053 1013 __________P___ -1 21.8705 133.488 4 9 322
1943193N12148 1943 39 WP MM NOT_NAMED 1943-07-15 00:00:00 NR 22.2000 133.200 main 1013 976 __________O___ -1 22.2000 133.200 4 8 321
1943193N12148 1943 39 WP MM NOT_NAMED 1943-07-15 03:00:00 NR 22.4665 132.973 main 976 949 __________P___ -1 22.4665 132.973 4 6 321
1943193N12148 1943 39 WP MM NOT_NAMED 1943-07-15 06:00:00 NR 22.6865 132.771 main 949 923 __________P___ -1 22.6865 132.771 4 6 318
1943193N12148 1943 39 WP MM NOT_NAMED 1943-07-15 09:00:00 NR 22.8883 132.558 main 923 896 __________P___ -1 22.8883 132.558 4 6 314
1943193N12148 1943 39 WP MM NOT_NAMED 1943-07-15 12:00:00 NR 23.1000 132.300 main 896 869 __________O___ -1 23.1000 132.300 4 7 312
1943193N12148 1943 39 WP MM NOT_NAMED 1943-07-15 15:00:00 NR 23.3644 131.975 main 858 831 __________P___ -1 23.3644 131.975 4 8 310
1943193N12148 1943 39 WP MM NOT_NAMED 1943-07-15 18:00:00 NR 23.6420 131.597 main 831 794 __________P___ -1 23.6420 131.597 4 9 307
1943193N12148 1943 39 WP MM NOT_NAMED 1943-07-15 21:00:00 NR 23.9236 131.171 main 794 759 __________P___ -1 23.9236 131.171 4 10 304
1943193N12148 1943 39 WP MM NOT_NAMED 1943-07-16 00:00:00 NR 24.2000 130.700 main 759 727 __________O___ -1 24.2000 130.700 4 10 302
1943193N12148 1943 39 WP MM NOT_NAMED 1943-07-16 03:00:00 NR 24.4769 130.217 main 727 707 __________P___ -1 24.4769 130.217 4 11 301
1943193N12148 1943 39 WP MM NOT_NAMED 1943-07-16 06:00:00 NR 24.7440 129.690 main 710 685 __________P___ -1 24.7440 129.690 4 11 297
1943193N12148 1943 39 WP MM NOT_NAMED 1943-07-16 09:00:00 NR 24.9891 129.118 main 688 654 __________P___ -1 24.9891 129.118 4 12 293
1943193N12148 1943 39 WP MM NOT_NAMED 1943-07-16 12:00:00 NR 25.2000 128.500 main 654 594 __________O___ -1 25.2000 128.500 4 12 288
1943193N12148 1943 39 WP MM NOT_NAMED 1943-07-16 15:00:00 NR 25.3774 127.835 main 584 525 __________P___ -1 25.3774 127.835 4 13 284
1943193N12148 1943 39 WP MM NOT_NAMED 1943-07-16 18:00:00 NR 25.5177 127.130 main 515 447 __________P___ -1 25.5177 127.130 4 13 281
1943193N12148 1943 39 WP MM NOT_NAMED 1943-07-16 21:00:00 NR 25.6241 126.410 main 447 379 __________P___ -1 25.6241 126.410 4 13 278
1943193N12148 1943 39 WP MM NOT_NAMED 1943-07-17 00:00:00 NR 25.7000 125.700 main 379 323 __________O___ -1 25.7000 125.700 4 13 276
1943193N12148 1943 39 WP MM NOT_NAMED 1943-07-17 03:00:00 NR 25.7648 125.031 main 314 256 __________P___ -1 25.7648 125.031 4 12 275
1943193N12148 1943 39 WP MM NOT_NAMED 1943-07-17 06:00:00 NR 25.8011 124.377 main 256 201 __________P___ -1 25.8011 124.377 4 12 272
1943193N12148 1943 39 WP MM NOT_NAMED 1943-07-17 09:00:00 NR 25.8118 123.735 main 192 142 __________P___ -1 25.8118 123.735 4 11 270
1943193N12148 1943 39 WP MM NOT_NAMED 1943-07-17 12:00:00 NR 25.8000 123.100 main 142 102 __________O___ -1 25.8000 123.100 4 12 269
1943193N12148 1943 39 WP MM NOT_NAMED 1943-07-17 15:00:00 NR 25.7872 122.456 main 102 73 __________P___ -1 25.7872 122.456 4 12 268
1943193N12148 1943 39 WP MM NOT_NAMED 1943-07-17 18:00:00 NR 25.7518 121.820 main 69 55 __________P___ -1 25.7518 121.820 4 11 265
1943193N12148 1943 39 WP MM NOT_NAMED 1943-07-17 21:00:00 NR 25.6904 121.200 main 59 59 __________P___ -1 25.6904 121.200 4 11 262
1943193N12148 1943 39 WP MM NOT_NAMED 1943-07-18 00:00:00 NR 25.6000 120.600 main 78 41 __________O___ -1 25.6000 120.600 4 11 260
1943193N12148 1943 39 WP MM NOT_NAMED 1943-07-18 03:00:00 NR 25.5021 120.029 main 32 0 __________P___ -1 25.5021 120.029 4 10 257
1943193N12148 1943 39 WP MM NOT_NAMED 1943-07-18 06:00:00 NR 25.3736 119.479 main 0 0 __________P___ -1 25.3736 119.479 4 10 253
1943193N12148 1943 39 WP MM NOT_NAMED 1943-07-18 09:00:00 NR 25.2084 118.939 main 0 0 __________P___ -1 25.2084 118.939 4 10 249
1943193N12148 1943 39 WP MM NOT_NAMED 1943-07-18 12:00:00 NR 25.0000 118.400 main 0 0 __________O___ -1 25.0000 118.400 4 11 244
1943193N12148 1943 39 WP MM NOT_NAMED 1943-07-18 15:00:00 NR 24.7229 117.821 main 0 0 __________P___ -1 24.7229 117.821 4 12 241
1943193N12148 1943 39 WP MM NOT_NAMED 1943-07-18 18:00:00 NR 24.4077 117.246 main 0 0 __________P___ -1 24.4077 117.246 4 12 238
1943193N12148 1943 39 WP MM NOT_NAMED 1943-07-18 21:00:00 NR 24.0886 116.699 main 0 0 __________P___ -1 24.0886 116.699 4 11 238
1943193N12148 1943 39 WP MM NOT_NAMED 1943-07-19 00:00:00 NR 23.8000 116.200 main 0 0 __________O___ -1 23.8000 116.200 4 10 240
1943193N12148 1943 39 WP MM NOT_NAMED 1943-07-19 03:00:00 NR 23.6043 115.781 main 0 0 __________P___ -1 23.6043 115.781 4 8 244
1943193N12148 1943 39 WP MM NOT_NAMED 1943-07-19 06:00:00 NR 23.4412 115.407 main 0 0 __________P___ -1 23.4412 115.407 4 7 244
1943193N12148 1943 39 WP MM NOT_NAMED 1943-07-19 09:00:00 NR 23.2825 115.055 main 0 0 __________P___ -1 23.2825 115.055 4 7 242
1943193N12148 1943 39 WP MM NOT_NAMED 1943-07-19 12:00:00 NR 23.1000 114.700 main 0 0 __________O___ -1 23.1000 114.700 4 8 239
1943193N12148 1943 39 WP MM NOT_NAMED 1943-07-19 15:00:00 NR 22.8718 114.322 main 0 0 __________P___ -1 22.8718 114.322 4 9 235
1943193N12148 1943 39 WP MM NOT_NAMED 1943-07-19 18:00:00 NR 22.6038 113.925 main 0 0 __________P___ -1 22.6038 113.925 4 9 233
1943193N12148 1943 39 WP MM NOT_NAMED 1943-07-19 21:00:00 NR 22.3089 113.515 main 0 0 __________P___ -1 22.3089 113.515 4 10 232
1943193N12148 1943 39 WP MM NOT_NAMED 1943-07-20 00:00:00 NR 22.0000 113.100 main 10 __________O___ -1 22.0000 113.100 4 10 231

Digital Typhoon Data and Search

About IBTrACS Database

This database is a web-friendly format of International Best Track Archive for Climate Stewardship (IBTrACS), a global best track data archive curated by NOAA dating back to 1842.

Updated: 2021-12-06